sensor_id;sensor_type;location;lat;lon;timestamp;P1;durP1;ratioP1;P2;durP2;ratioP2
25127;SDS011;13107;51.304;6.866;2023-02-08T00:01:57;13.93;;;7.97;;
25127;SDS011;13107;51.304;6.866;2023-02-08T00:05:59;15.90;;;8.07;;
25127;SDS011;13107;51.304;6.866;2023-02-08T00:10:01;12.20;;;7.47;;
25127;SDS011;13107;51.304;6.866;2023-02-08T00:14:05;14.23;;;7.90;;
25127;SDS011;13107;51.304;6.866;2023-02-08T00:18:08;16.60;;;7.70;;
25127;SDS011;13107;51.304;6.866;2023-02-08T00:22:10;13.48;;;7.40;;
25127;SDS011;13107;51.304;6.866;2023-02-08T00:26:12;13.30;;;7.53;;
25127;SDS011;13107;51.304;6.866;2023-02-08T00:30:15;15.27;;;7.87;;
25127;SDS011;13107;51.304;6.866;2023-02-08T00:34:17;12.63;;;7.12;;
25127;SDS011;13107;51.304;6.866;2023-02-08T00:38:18;14.87;;;7.95;;
25127;SDS011;13107;51.304;6.866;2023-02-08T00:42:20;15.52;;;7.60;;
25127;SDS011;13107;51.304;6.866;2023-02-08T00:46:22;14.55;;;8.25;;
25127;SDS011;13107;51.304;6.866;2023-02-08T00:50:24;13.52;;;7.32;;
25127;SDS011;13107;51.304;6.866;2023-02-08T00:54:26;16.52;;;7.72;;
25127;SDS011;13107;51.304;6.866;2023-02-08T00:58:27;10.50;;;6.25;;
25127;SDS011;13107;51.304;6.866;2023-02-08T01:02:29;17.65;;;7.75;;
25127;SDS011;13107;51.304;6.866;2023-02-08T01:06:31;13.15;;;7.50;;
25127;SDS011;13107;51.304;6.866;2023-02-08T01:10:33;15.05;;;7.55;;
25127;SDS011;13107;51.304;6.866;2023-02-08T01:14:36;13.23;;;7.35;;
25127;SDS011;13107;51.304;6.866;2023-02-08T01:18:39;11.63;;;7.00;;
25127;SDS011;13107;51.304;6.866;2023-02-08T01:22:42;13.55;;;7.57;;
25127;SDS011;13107;51.304;6.866;2023-02-08T01:26:44;13.35;;;7.57;;
25127;SDS011;13107;51.304;6.866;2023-02-08T01:30:46;16.77;;;7.45;;
25127;SDS011;13107;51.304;6.866;2023-02-08T01:34:47;12.25;;;6.95;;
25127;SDS011;13107;51.304;6.866;2023-02-08T01:38:49;12.25;;;7.18;;
25127;SDS011;13107;51.304;6.866;2023-02-08T01:42:51;13.40;;;6.82;;
25127;SDS011;13107;51.304;6.866;2023-02-08T01:46:52;11.40;;;7.40;;
25127;SDS011;13107;51.304;6.866;2023-02-08T01:50:57;12.27;;;6.60;;
25127;SDS011;13107;51.304;6.866;2023-02-08T01:59:09;13.45;;;7.10;;
25127;SDS011;13107;51.304;6.866;2023-02-08T02:03:18;16.90;;;7.28;;
25127;SDS011;13107;51.304;6.866;2023-02-08T02:07:23;12.23;;;6.72;;
25127;SDS011;13107;51.304;6.866;2023-02-08T02:11:28;11.18;;;6.68;;
25127;SDS011;13107;51.304;6.866;2023-02-08T02:15:30;13.85;;;7.10;;
25127;SDS011;13107;51.304;6.866;2023-02-08T02:29:11;13.32;;;7.00;;
25127;SDS011;13107;51.304;6.866;2023-02-08T02:34:09;16.10;;;7.07;;
25127;SDS011;13107;51.304;6.866;2023-02-08T02:42:43;14.57;;;7.95;;
25127;SDS011;13107;51.304;6.866;2023-02-08T02:51:24;12.88;;;6.75;;
25127;SDS011;13107;51.304;6.866;2023-02-08T02:55:43;13.55;;;7.25;;
25127;SDS011;13107;51.304;6.866;2023-02-08T02:59:50;12.27;;;6.93;;
25127;SDS011;13107;51.304;6.866;2023-02-08T03:03:52;16.95;;;6.90;;
25127;SDS011;13107;51.304;6.866;2023-02-08T03:12:28;12.32;;;6.68;;
25127;SDS011;13107;51.304;6.866;2023-02-08T03:25:44;14.38;;;6.72;;
25127;SDS011;13107;51.304;6.866;2023-02-08T03:38:16;11.55;;;6.18;;
25127;SDS011;13107;51.304;6.866;2023-02-08T03:42:23;11.35;;;6.40;;
25127;SDS011;13107;51.304;6.866;2023-02-08T03:46:29;11.20;;;6.05;;
25127;SDS011;13107;51.304;6.866;2023-02-08T03:50:34;13.57;;;6.50;;
25127;SDS011;13107;51.304;6.866;2023-02-08T03:54:50;12.00;;;6.18;;
25127;SDS011;13107;51.304;6.866;2023-02-08T03:58:59;12.75;;;6.53;;
25127;SDS011;13107;51.304;6.866;2023-02-08T04:03:08;11.38;;;6.03;;
25127;SDS011;13107;51.304;6.866;2023-02-08T04:07:18;12.77;;;6.43;;
25127;SDS011;13107;51.304;6.866;2023-02-08T04:11:20;13.23;;;6.30;;
25127;SDS011;13107;51.304;6.866;2023-02-08T04:15:22;11.80;;;6.37;;
25127;SDS011;13107;51.304;6.866;2023-02-08T04:19:24;11.40;;;6.53;;
25127;SDS011;13107;51.304;6.866;2023-02-08T04:23:25;11.20;;;5.90;;
25127;SDS011;13107;51.304;6.866;2023-02-08T04:27:27;14.45;;;5.95;;
25127;SDS011;13107;51.304;6.866;2023-02-08T04:31:28;13.73;;;6.05;;
25127;SDS011;13107;51.304;6.866;2023-02-08T04:35:30;12.13;;;6.32;;
25127;SDS011;13107;51.304;6.866;2023-02-08T04:39:32;9.88;;;6.45;;
25127;SDS011;13107;51.304;6.866;2023-02-08T04:43:34;9.85;;;5.90;;
25127;SDS011;13107;51.304;6.866;2023-02-08T04:47:35;11.43;;;6.18;;
25127;SDS011;13107;51.304;6.866;2023-02-08T04:51:37;9.70;;;5.35;;
25127;SDS011;13107;51.304;6.866;2023-02-08T04:55:39;10.90;;;6.10;;
25127;SDS011;13107;51.304;6.866;2023-02-08T04:59:41;11.15;;;5.47;;
25127;SDS011;13107;51.304;6.866;2023-02-08T05:03:43;10.35;;;5.45;;
25127;SDS011;13107;51.304;6.866;2023-02-08T05:07:44;13.05;;;5.78;;
25127;SDS011;13107;51.304;6.866;2023-02-08T05:11:46;11.95;;;5.70;;
25127;SDS011;13107;51.304;6.866;2023-02-08T05:15:48;10.32;;;5.40;;
25127;SDS011;13107;51.304;6.866;2023-02-08T05:19:49;9.30;;;5.43;;
25127;SDS011;13107;51.304;6.866;2023-02-08T05:23:51;12.73;;;5.62;;
25127;SDS011;13107;51.304;6.866;2023-02-08T05:27:53;10.75;;;5.55;;
25127;SDS011;13107;51.304;6.866;2023-02-08T05:31:55;9.52;;;4.93;;
25127;SDS011;13107;51.304;6.866;2023-02-08T05:35:56;10.38;;;5.30;;
25127;SDS011;13107;51.304;6.866;2023-02-08T05:39:58;9.35;;;5.12;;
25127;SDS011;13107;51.304;6.866;2023-02-08T05:44:00;8.13;;;5.18;;
25127;SDS011;13107;51.304;6.866;2023-02-08T05:48:01;16.12;;;5.78;;
25127;SDS011;13107;51.304;6.866;2023-02-08T05:52:03;7.40;;;4.80;;
25127;SDS011;13107;51.304;6.866;2023-02-08T05:56:05;9.93;;;4.93;;
25127;SDS011;13107;51.304;6.866;2023-02-08T06:00:07;9.43;;;5.18;;
25127;SDS011;13107;51.304;6.866;2023-02-08T06:04:10;19.00;;;9.52;;
25127;SDS011;13107;51.304;6.866;2023-02-08T06:08:11;15.85;;;8.00;;
25127;SDS011;13107;51.304;6.866;2023-02-08T06:12:13;13.45;;;6.40;;
25127;SDS011;13107;51.304;6.866;2023-02-08T06:16:15;10.02;;;5.70;;
25127;SDS011;13107;51.304;6.866;2023-02-08T06:20:20;9.90;;;5.40;;
25127;SDS011;13107;51.304;6.866;2023-02-08T06:24:21;10.25;;;5.90;;
25127;SDS011;13107;51.304;6.866;2023-02-08T06:28:25;9.93;;;5.85;;
25127;SDS011;13107;51.304;6.866;2023-02-08T06:32:26;11.30;;;5.25;;
25127;SDS011;13107;51.304;6.866;2023-02-08T06:36:28;10.57;;;5.57;;
25127;SDS011;13107;51.304;6.866;2023-02-08T06:40:30;14.35;;;7.75;;
25127;SDS011;13107;51.304;6.866;2023-02-08T06:44:32;12.23;;;5.78;;
25127;SDS011;13107;51.304;6.866;2023-02-08T06:48:34;11.25;;;5.70;;
25127;SDS011;13107;51.304;6.866;2023-02-08T06:52:36;9.52;;;5.43;;
25127;SDS011;13107;51.304;6.866;2023-02-08T06:56:37;10.32;;;5.95;;
25127;SDS011;13107;51.304;6.866;2023-02-08T07:00:39;12.88;;;5.15;;
25127;SDS011;13107;51.304;6.866;2023-02-08T07:04:41;10.40;;;5.45;;
25127;SDS011;13107;51.304;6.866;2023-02-08T07:08:45;12.95;;;5.75;;
25127;SDS011;13107;51.304;6.866;2023-02-08T07:12:47;26.00;;;11.98;;
25127;SDS011;13107;51.304;6.866;2023-02-08T07:16:49;20.92;;;8.40;;
25127;SDS011;13107;51.304;6.866;2023-02-08T07:20:51;12.13;;;6.28;;
25127;SDS011;13107;51.304;6.866;2023-02-08T07:24:53;11.63;;;5.90;;
25127;SDS011;13107;51.304;6.866;2023-02-08T07:28:56;12.57;;;5.60;;
25127;SDS011;13107;51.304;6.866;2023-02-08T07:32:58;12.13;;;5.65;;
25127;SDS011;13107;51.304;6.866;2023-02-08T07:37:00;13.62;;;5.43;;
25127;SDS011;13107;51.304;6.866;2023-02-08T07:41:03;8.73;;;4.80;;
25127;SDS011;13107;51.304;6.866;2023-02-08T07:45:10;10.43;;;5.12;;
25127;SDS011;13107;51.304;6.866;2023-02-08T07:49:11;12.30;;;5.12;;
25127;SDS011;13107;51.304;6.866;2023-02-08T07:53:13;12.00;;;5.37;;
25127;SDS011;13107;51.304;6.866;2023-02-08T07:57:15;10.60;;;5.22;;
25127;SDS011;13107;51.304;6.866;2023-02-08T08:01:21;11.73;;;5.70;;
25127;SDS011;13107;51.304;6.866;2023-02-08T08:05:23;7.95;;;4.85;;
25127;SDS011;13107;51.304;6.866;2023-02-08T08:09:25;15.50;;;5.57;;
25127;SDS011;13107;51.304;6.866;2023-02-08T08:13:26;9.88;;;5.50;;
25127;SDS011;13107;51.304;6.866;2023-02-08T08:17:28;10.38;;;5.70;;
25127;SDS011;13107;51.304;6.866;2023-02-08T08:21:30;11.18;;;5.65;;
25127;SDS011;13107;51.304;6.866;2023-02-08T08:25:32;9.75;;;5.30;;
25127;SDS011;13107;51.304;6.866;2023-02-08T08:29:35;10.93;;;5.68;;
25127;SDS011;13107;51.304;6.866;2023-02-08T08:33:37;12.40;;;5.80;;
25127;SDS011;13107;51.304;6.866;2023-02-08T08:37:39;11.80;;;5.47;;
25127;SDS011;13107;51.304;6.866;2023-02-08T08:41:41;10.48;;;5.43;;
25127;SDS011;13107;51.304;6.866;2023-02-08T08:45:43;13.45;;;6.65;;
25127;SDS011;13107;51.304;6.866;2023-02-08T08:49:45;8.38;;;4.72;;
25127;SDS011;13107;51.304;6.866;2023-02-08T08:53:47;9.63;;;5.70;;
25127;SDS011;13107;51.304;6.866;2023-02-08T08:57:50;15.88;;;9.40;;
25127;SDS011;13107;51.304;6.866;2023-02-08T09:01:53;17.23;;;9.55;;
25127;SDS011;13107;51.304;6.866;2023-02-08T09:05:55;20.05;;;11.32;;
25127;SDS011;13107;51.304;6.866;2023-02-08T09:09:57;14.57;;;9.13;;
25127;SDS011;13107;51.304;6.866;2023-02-08T09:14:01;13.98;;;7.50;;
25127;SDS011;13107;51.304;6.866;2023-02-08T09:18:04;12.67;;;6.00;;
25127;SDS011;13107;51.304;6.866;2023-02-08T09:22:07;10.40;;;5.60;;
25127;SDS011;13107;51.304;6.866;2023-02-08T09:26:10;11.75;;;4.95;;
25127;SDS011;13107;51.304;6.866;2023-02-08T09:30:12;11.52;;;4.80;;
25127;SDS011;13107;51.304;6.866;2023-02-08T09:34:14;9.48;;;4.15;;
25127;SDS011;13107;51.304;6.866;2023-02-08T09:38:16;10.40;;;4.05;;
25127;SDS011;13107;51.304;6.866;2023-02-08T09:46:39;8.23;;;4.28;;
25127;SDS011;13107;51.304;6.866;2023-02-08T09:50:45;8.90;;;4.37;;
25127;SDS011;13107;51.304;6.866;2023-02-08T09:54:55;5.87;;;3.53;;
25127;SDS011;13107;51.304;6.866;2023-02-08T09:59:02;7.18;;;3.72;;
25127;SDS011;13107;51.304;6.866;2023-02-08T10:03:04;6.35;;;3.70;;
25127;SDS011;13107;51.304;6.866;2023-02-08T10:07:09;6.70;;;3.33;;
25127;SDS011;13107;51.304;6.866;2023-02-08T10:19:39;7.12;;;3.50;;
25127;SDS011;13107;51.304;6.866;2023-02-08T10:32:27;5.47;;;2.90;;
25127;SDS011;13107;51.304;6.866;2023-02-08T10:36:42;4.57;;;2.60;;
25127;SDS011;13107;51.304;6.866;2023-02-08T10:40:48;4.25;;;2.05;;
25127;SDS011;13107;51.304;6.866;2023-02-08T10:45:15;4.25;;;2.10;;
25127;SDS011;13107;51.304;6.866;2023-02-08T10:53:35;4.45;;;2.65;;
25127;SDS011;13107;51.304;6.866;2023-02-08T10:57:36;3.75;;;2.25;;
25127;SDS011;13107;51.304;6.866;2023-02-08T11:01:38;3.80;;;2.55;;
25127;SDS011;13107;51.304;6.866;2023-02-08T11:05:40;3.87;;;2.15;;
25127;SDS011;13107;51.304;6.866;2023-02-08T11:09:43;4.80;;;2.37;;
25127;SDS011;13107;51.304;6.866;2023-02-08T11:13:45;2.90;;;1.90;;
25127;SDS011;13107;51.304;6.866;2023-02-08T11:17:52;4.35;;;1.70;;
25127;SDS011;13107;51.304;6.866;2023-02-08T11:21:59;3.40;;;1.92;;
25127;SDS011;13107;51.304;6.866;2023-02-08T11:26:16;4.43;;;1.97;;
25127;SDS011;13107;51.304;6.866;2023-02-08T11:30:24;4.78;;;2.15;;
25127;SDS011;13107;51.304;6.866;2023-02-08T11:34:32;4.55;;;1.83;;
25127;SDS011;13107;51.304;6.866;2023-02-08T11:38:40;3.92;;;1.90;;
25127;SDS011;13107;51.304;6.866;2023-02-08T11:42:43;4.57;;;1.75;;
25127;SDS011;13107;51.304;6.866;2023-02-08T11:46:45;3.45;;;1.42;;
25127;SDS011;13107;51.304;6.866;2023-02-08T11:50:52;3.10;;;1.52;;
25127;SDS011;13107;51.304;6.866;2023-02-08T11:55:13;3.35;;;1.62;;
25127;SDS011;13107;51.304;6.866;2023-02-08T11:59:19;3.30;;;1.60;;
25127;SDS011;13107;51.304;6.866;2023-02-08T12:03:24;4.37;;;1.87;;
25127;SDS011;13107;51.304;6.866;2023-02-08T12:21:34;2.75;;;1.80;;
25127;SDS011;13107;51.304;6.866;2023-02-08T12:25:29;3.83;;;2.35;;
25127;SDS011;13107;51.304;6.866;2023-02-08T12:29:40;3.08;;;2.08;;
25127;SDS011;13107;51.304;6.866;2023-02-08T12:34:00;3.70;;;2.00;;
25127;SDS011;13107;51.304;6.866;2023-02-08T12:47:06;5.77;;;2.20;;
25127;SDS011;13107;51.304;6.866;2023-02-08T12:55:35;4.70;;;1.98;;
25127;SDS011;13107;51.304;6.866;2023-02-08T13:00:14;3.65;;;1.95;;
25127;SDS011;13107;51.304;6.866;2023-02-08T13:04:26;3.70;;;1.92;;
25127;SDS011;13107;51.304;6.866;2023-02-08T13:08:49;4.12;;;2.20;;
25127;SDS011;13107;51.304;6.866;2023-02-08T13:13:11;4.50;;;2.12;;
25127;SDS011;13107;51.304;6.866;2023-02-08T13:17:23;5.32;;;2.30;;
25127;SDS011;13107;51.304;6.866;2023-02-08T13:21:28;5.70;;;2.35;;
25127;SDS011;13107;51.304;6.866;2023-02-08T13:25:38;3.25;;;2.03;;
25127;SDS011;13107;51.304;6.866;2023-02-08T13:29:46;3.15;;;2.05;;
25127;SDS011;13107;51.304;6.866;2023-02-08T13:33:51;3.17;;;2.10;;
25127;SDS011;13107;51.304;6.866;2023-02-08T13:38:04;3.67;;;2.03;;
25127;SDS011;13107;51.304;6.866;2023-02-08T13:42:18;3.45;;;1.87;;
25127;SDS011;13107;51.304;6.866;2023-02-08T13:46:34;5.18;;;2.50;;
25127;SDS011;13107;51.304;6.866;2023-02-08T13:50:41;4.50;;;2.33;;
25127;SDS011;13107;51.304;6.866;2023-02-08T13:55:37;3.45;;;2.22;;
25127;SDS011;13107;51.304;6.866;2023-02-08T13:59:38;3.60;;;2.15;;
25127;SDS011;13107;51.304;6.866;2023-02-08T14:03:42;4.70;;;2.20;;
25127;SDS011;13107;51.304;6.866;2023-02-08T14:07:44;3.97;;;2.35;;
25127;SDS011;13107;51.304;6.866;2023-02-08T14:12:01;4.22;;;2.37;;
25127;SDS011;13107;51.304;6.866;2023-02-08T14:20:38;3.37;;;1.90;;
25127;SDS011;13107;51.304;6.866;2023-02-08T14:24:42;3.58;;;2.60;;
25127;SDS011;13107;51.304;6.866;2023-02-08T14:28:49;4.90;;;2.40;;
25127;SDS011;13107;51.304;6.866;2023-02-08T14:45:50;6.10;;;2.30;;
25127;SDS011;13107;51.304;6.866;2023-02-08T14:50:00;3.20;;;2.20;;
25127;SDS011;13107;51.304;6.866;2023-02-08T14:54:15;3.10;;;2.00;;
25127;SDS011;13107;51.304;6.866;2023-02-08T14:58:27;4.87;;;2.83;;
25127;SDS011;13107;51.304;6.866;2023-02-08T15:02:31;4.80;;;2.65;;
25127;SDS011;13107;51.304;6.866;2023-02-08T15:10:41;4.12;;;2.22;;
25127;SDS011;13107;51.304;6.866;2023-02-08T15:14:45;4.87;;;2.62;;
25127;SDS011;13107;51.304;6.866;2023-02-08T15:18:47;4.95;;;2.37;;
25127;SDS011;13107;51.304;6.866;2023-02-08T15:27:01;3.47;;;2.03;;
25127;SDS011;13107;51.304;6.866;2023-02-08T15:31:08;4.87;;;2.45;;
25127;SDS011;13107;51.304;6.866;2023-02-08T15:35:17;3.42;;;1.90;;
25127;SDS011;13107;51.304;6.866;2023-02-08T15:39:35;6.30;;;2.10;;
25127;SDS011;13107;51.304;6.866;2023-02-08T15:43:41;3.90;;;1.95;;
25127;SDS011;13107;51.304;6.866;2023-02-08T15:47:43;4.70;;;2.17;;
25127;SDS011;13107;51.304;6.866;2023-02-08T15:51:45;2.92;;;1.80;;
25127;SDS011;13107;51.304;6.866;2023-02-08T15:55:52;5.75;;;2.08;;
25127;SDS011;13107;51.304;6.866;2023-02-08T16:00:03;5.65;;;2.17;;
25127;SDS011;13107;51.304;6.866;2023-02-08T16:04:12;5.12;;;1.92;;
25127;SDS011;13107;51.304;6.866;2023-02-08T16:08:16;4.60;;;1.85;;
25127;SDS011;13107;51.304;6.866;2023-02-08T16:12:24;3.05;;;1.90;;
25127;SDS011;13107;51.304;6.866;2023-02-08T16:20:35;3.58;;;1.92;;
25127;SDS011;13107;51.304;6.866;2023-02-08T16:24:37;4.53;;;1.98;;
25127;SDS011;13107;51.304;6.866;2023-02-08T16:28:38;6.35;;;2.37;;
25127;SDS011;13107;51.304;6.866;2023-02-08T16:32:40;4.45;;;2.00;;
25127;SDS011;13107;51.304;6.866;2023-02-08T16:36:43;4.20;;;2.40;;
25127;SDS011;13107;51.304;6.866;2023-02-08T16:40:51;9.02;;;4.70;;
25127;SDS011;13107;51.304;6.866;2023-02-08T16:45:16;4.22;;;2.67;;
25127;SDS011;13107;51.304;6.866;2023-02-08T16:49:18;4.65;;;2.42;;
25127;SDS011;13107;51.304;6.866;2023-02-08T16:53:20;6.12;;;2.10;;
25127;SDS011;13107;51.304;6.866;2023-02-08T16:57:49;4.47;;;1.95;;
25127;SDS011;13107;51.304;6.866;2023-02-08T17:01:54;3.90;;;1.85;;
25127;SDS011;13107;51.304;6.866;2023-02-08T17:05:58;4.10;;;1.58;;
25127;SDS011;13107;51.304;6.866;2023-02-08T17:10:01;2.80;;;1.77;;
25127;SDS011;13107;51.304;6.866;2023-02-08T17:14:07;3.35;;;1.60;;
25127;SDS011;13107;51.304;6.866;2023-02-08T17:18:10;4.43;;;1.52;;
25127;SDS011;13107;51.304;6.866;2023-02-08T17:22:13;2.33;;;1.50;;
25127;SDS011;13107;51.304;6.866;2023-02-08T17:26:25;2.33;;;1.15;;
25127;SDS011;13107;51.304;6.866;2023-02-08T17:30:30;4.45;;;1.90;;
25127;SDS011;13107;51.304;6.866;2023-02-08T17:34:35;13.65;;;7.37;;
25127;SDS011;13107;51.304;6.866;2023-02-08T17:38:37;7.05;;;2.20;;
25127;SDS011;13107;51.304;6.866;2023-02-08T17:42:39;5.00;;;2.22;;
25127;SDS011;13107;51.304;6.866;2023-02-08T17:46:41;5.25;;;2.12;;
25127;SDS011;13107;51.304;6.866;2023-02-08T17:50:43;5.78;;;2.70;;
25127;SDS011;13107;51.304;6.866;2023-02-08T17:54:50;18.62;;;8.77;;
25127;SDS011;13107;51.304;6.866;2023-02-08T17:58:52;18.33;;;9.73;;
25127;SDS011;13107;51.304;6.866;2023-02-08T18:02:55;14.87;;;8.00;;
25127;SDS011;13107;51.304;6.866;2023-02-08T18:07:00;10.30;;;6.35;;
25127;SDS011;13107;51.304;6.866;2023-02-08T18:11:03;9.55;;;5.12;;
25127;SDS011;13107;51.304;6.866;2023-02-08T18:15:07;9.77;;;5.15;;
25127;SDS011;13107;51.304;6.866;2023-02-08T18:19:12;8.05;;;5.12;;
25127;SDS011;13107;51.304;6.866;2023-02-08T18:23:13;10.32;;;5.05;;
25127;SDS011;13107;51.304;6.866;2023-02-08T18:27:15;6.50;;;4.80;;
25127;SDS011;13107;51.304;6.866;2023-02-08T18:31:17;9.43;;;4.97;;
25127;SDS011;13107;51.304;6.866;2023-02-08T18:35:22;10.70;;;4.93;;
25127;SDS011;13107;51.304;6.866;2023-02-08T18:39:24;7.40;;;4.30;;
25127;SDS011;13107;51.304;6.866;2023-02-08T18:43:26;5.80;;;2.70;;
25127;SDS011;13107;51.304;6.866;2023-02-08T18:47:28;4.87;;;2.67;;
25127;SDS011;13107;51.304;6.866;2023-02-08T18:51:30;4.18;;;2.10;;
25127;SDS011;13107;51.304;6.866;2023-02-08T18:55:31;4.68;;;2.30;;
25127;SDS011;13107;51.304;6.866;2023-02-08T18:59:33;8.30;;;2.45;;
25127;SDS011;13107;51.304;6.866;2023-02-08T19:03:35;3.72;;;2.30;;
25127;SDS011;13107;51.304;6.866;2023-02-08T19:07:37;9.65;;;7.03;;
25127;SDS011;13107;51.304;6.866;2023-02-08T19:11:40;11.65;;;7.10;;
25127;SDS011;13107;51.304;6.866;2023-02-08T19:15:44;8.13;;;4.85;;
25127;SDS011;13107;51.304;6.866;2023-02-08T19:19:46;7.35;;;3.83;;
25127;SDS011;13107;51.304;6.866;2023-02-08T19:23:48;6.87;;;2.80;;
25127;SDS011;13107;51.304;6.866;2023-02-08T19:31:56;9.35;;;3.53;;
25127;SDS011;13107;51.304;6.866;2023-02-08T19:36:04;8.68;;;3.40;;
25127;SDS011;13107;51.304;6.866;2023-02-08T19:40:08;6.87;;;3.78;;
25127;SDS011;13107;51.304;6.866;2023-02-08T19:44:12;9.90;;;3.97;;
25127;SDS011;13107;51.304;6.866;2023-02-08T19:48:16;7.75;;;4.07;;
25127;SDS011;13107;51.304;6.866;2023-02-08T19:52:17;7.82;;;3.67;;
25127;SDS011;13107;51.304;6.866;2023-02-08T19:56:22;7.35;;;3.62;;
25127;SDS011;13107;51.304;6.866;2023-02-08T20:00:24;7.12;;;3.10;;
25127;SDS011;13107;51.304;6.866;2023-02-08T20:04:26;8.93;;;4.10;;
25127;SDS011;13107;51.304;6.866;2023-02-08T20:08:27;7.15;;;3.85;;
25127;SDS011;13107;51.304;6.866;2023-02-08T20:12:29;7.43;;;3.58;;
25127;SDS011;13107;51.304;6.866;2023-02-08T20:16:31;7.22;;;3.30;;
25127;SDS011;13107;51.304;6.866;2023-02-08T20:20:34;5.55;;;3.30;;
25127;SDS011;13107;51.304;6.866;2023-02-08T20:24:36;8.55;;;3.70;;
25127;SDS011;13107;51.304;6.866;2023-02-08T20:28:40;5.80;;;3.65;;
25127;SDS011;13107;51.304;6.866;2023-02-08T20:32:44;9.37;;;4.07;;
25127;SDS011;13107;51.304;6.866;2023-02-08T20:36:47;5.20;;;3.20;;
25127;SDS011;13107;51.304;6.866;2023-02-08T20:41:08;7.32;;;3.45;;
25127;SDS011;13107;51.304;6.866;2023-02-08T20:45:11;7.18;;;3.37;;
25127;SDS011;13107;51.304;6.866;2023-02-08T20:49:15;6.68;;;3.30;;
25127;SDS011;13107;51.304;6.866;2023-02-08T20:53:22;6.62;;;3.20;;
25127;SDS011;13107;51.304;6.866;2023-02-08T20:57:24;7.87;;;3.78;;
25127;SDS011;13107;51.304;6.866;2023-02-08T21:01:26;5.47;;;3.37;;
25127;SDS011;13107;51.304;6.866;2023-02-08T21:05:28;5.40;;;3.20;;
25127;SDS011;13107;51.304;6.866;2023-02-08T21:09:30;9.23;;;3.70;;
25127;SDS011;13107;51.304;6.866;2023-02-08T21:13:32;5.30;;;3.08;;
25127;SDS011;13107;51.304;6.866;2023-02-08T21:17:34;10.57;;;4.32;;
25127;SDS011;13107;51.304;6.866;2023-02-08T21:21:40;9.40;;;4.18;;
25127;SDS011;13107;51.304;6.866;2023-02-08T21:25:42;6.47;;;3.60;;
25127;SDS011;13107;51.304;6.866;2023-02-08T21:29:45;10.20;;;4.20;;
25127;SDS011;13107;51.304;6.866;2023-02-08T21:33:50;7.85;;;3.87;;
25127;SDS011;13107;51.304;6.866;2023-02-08T21:37:52;7.68;;;3.95;;
25127;SDS011;13107;51.304;6.866;2023-02-08T21:41:54;6.95;;;3.75;;
25127;SDS011;13107;51.304;6.866;2023-02-08T21:46:00;7.62;;;3.33;;
25127;SDS011;13107;51.304;6.866;2023-02-08T21:50:02;7.55;;;3.97;;
25127;SDS011;13107;51.304;6.866;2023-02-08T21:54:23;5.65;;;3.60;;
25127;SDS011;13107;51.304;6.866;2023-02-08T21:58:42;7.00;;;3.45;;
25127;SDS011;13107;51.304;6.866;2023-02-08T22:02:44;7.45;;;3.83;;
25127;SDS011;13107;51.304;6.866;2023-02-08T22:06:45;10.52;;;4.15;;
25127;SDS011;13107;51.304;6.866;2023-02-08T22:10:53;7.75;;;3.50;;
25127;SDS011;13107;51.304;6.866;2023-02-08T22:14:58;8.45;;;4.12;;
25127;SDS011;13107;51.304;6.866;2023-02-08T22:19:00;6.20;;;3.60;;
25127;SDS011;13107;51.304;6.866;2023-02-08T22:23:02;6.95;;;3.83;;
25127;SDS011;13107;51.304;6.866;2023-02-08T22:27:04;8.32;;;3.80;;
25127;SDS011;13107;51.304;6.866;2023-02-08T22:31:06;6.10;;;3.47;;
25127;SDS011;13107;51.304;6.866;2023-02-08T22:35:08;7.37;;;3.70;;
25127;SDS011;13107;51.304;6.866;2023-02-08T22:39:11;6.32;;;3.53;;
25127;SDS011;13107;51.304;6.866;2023-02-08T22:43:13;8.75;;;4.00;;
25127;SDS011;13107;51.304;6.866;2023-02-08T22:47:14;7.72;;;3.92;;
25127;SDS011;13107;51.304;6.866;2023-02-08T22:51:17;7.57;;;3.80;;
25127;SDS011;13107;51.304;6.866;2023-02-08T22:55:19;9.65;;;4.07;;
25127;SDS011;13107;51.304;6.866;2023-02-08T22:59:21;6.93;;;3.87;;
25127;SDS011;13107;51.304;6.866;2023-02-08T23:03:22;7.82;;;3.90;;
25127;SDS011;13107;51.304;6.866;2023-02-08T23:07:24;9.35;;;4.35;;
25127;SDS011;13107;51.304;6.866;2023-02-08T23:11:26;8.68;;;4.93;;
25127;SDS011;13107;51.304;6.866;2023-02-08T23:15:28;8.13;;;4.30;;
25127;SDS011;13107;51.304;6.866;2023-02-08T23:19:30;8.70;;;4.32;;
25127;SDS011;13107;51.304;6.866;2023-02-08T23:23:32;9.55;;;4.45;;
25127;SDS011;13107;51.304;6.866;2023-02-08T23:27:33;8.93;;;4.32;;
25127;SDS011;13107;51.304;6.866;2023-02-08T23:31:37;8.55;;;4.30;;
25127;SDS011;13107;51.304;6.866;2023-02-08T23:35:40;10.15;;;4.62;;
25127;SDS011;13107;51.304;6.866;2023-02-08T23:39:42;8.00;;;4.68;;
25127;SDS011;13107;51.304;6.866;2023-02-08T23:43:43;11.07;;;5.60;;
25127;SDS011;13107;51.304;6.866;2023-02-08T23:47:45;10.43;;;4.85;;
25127;SDS011;13107;51.304;6.866;2023-02-08T23:51:47;9.43;;;4.62;;
25127;SDS011;13107;51.304;6.866;2023-02-08T23:55:49;10.48;;;4.80;;
25127;SDS011;13107;51.304;6.866;2023-02-08T23:59:50;10.50;;;5.00;;
